Time;durP1;ratioP1;P1;durP2;ratioP2;P2;SDS_P1;SDS_P2;PMS_P1;PMS_P2;Temp;Humidity;BMP_temperature;BMP_pressure;BME280_temperature;BME280_humidity;BME280_pressure;Samples;Min_cycle;Max_cycle;Signal;HPM_P1;HPM_P2
2022/10/15 00:01:09;;;;;;;54.08;33.47;;;;;;;;;;4925878;28;20097;-75
2022/10/15 00:03:36;;;;;;;47.45;30.52;;;;;;;;;;4928950;28;20390;-75
2022/10/15 00:06:11;;;;;;;48.03;28.52;;;;;;;;;;4934260;28;20115;-74
2022/10/15 00:08:37;;;;;;;47.55;28.92;;;;;;;;;;4925952;28;20140;-75
2022/10/15 00:11:11;;;;;;;45.88;29.02;;;;;;;;;;4925204;28;20720;-74
2022/10/15 00:13:46;;;;;;;52.88;31.05;;;;;;;;;;4869707;28;20150;-74
2022/10/15 00:16:16;;;;;;;56.30;31.98;;;;;;;;;;4927737;28;20151;-74
2022/10/15 00:18:42;;;;;;;53.20;30.75;;;;;;;;;;4941729;28;20033;-74
2022/10/15 00:21:11;;;;;;;59.22;33.88;;;;;;;;;;4945330;28;20034;-74
2022/10/15 00:23:38;;;;;;;57.22;34.60;;;;;;;;;;4919183;28;20043;-74
2022/10/15 00:26:08;;;;;;;53.97;34.13;;;;;;;;;;4946740;28;20390;-73
2022/10/15 00:28:38;;;;;;;55.33;34.03;;;;;;;;;;4934340;28;20038;-74
2022/10/15 00:31:07;;;;;;;57.22;35.13;;;;;;;;;;4955207;28;20038;-74
2022/10/15 00:33:44;;;;;;;56.92;36.97;;;;;;;;;;4918344;28;21824;-74
2022/10/15 00:36:11;;;;;;;62.15;37.15;;;;;;;;;;4945733;28;20304;-74
2022/10/15 00:38:58;;;;;;;61.20;38.72;;;;;;;;;;4934939;28;20390;-74
2022/10/15 00:41:59;;;;;;;61.47;39.35;;;;;;;;;;4908450;28;20036;-74
2022/10/15 00:44:31;;;;;;;60.08;38.50;;;;;;;;;;4912743;28;20550;-75
2022/10/15 00:46:56;;;;;;;67.40;37.95;;;;;;;;;;4938021;28;20033;-73
2022/10/15 00:49:38;;;;;;;60.63;35.90;;;;;;;;;;4920619;28;20056;-73
2022/10/15 00:52:32;;;;;;;64.28;37.90;;;;;;;;;;4920651;28;20037;-74
2022/10/15 00:55:16;;;;;;;61.50;36.55;;;;;;;;;;4946224;28;20499;-73
2022/10/15 00:58:00;;;;;;;67.60;43.30;;;;;;;;;;4935697;28;20596;-74
2022/10/15 01:00:29;;;;;;;75.90;42.83;;;;;;;;;;4947763;28;20500;-73
2022/10/15 01:02:58;;;;;;;77.03;42.78;;;;;;;;;;4943371;28;20143;-74
2022/10/15 01:05:32;;;;;;;76.57;41.85;;;;;;;;;;4947508;28;20064;-73
2022/10/15 01:08:11;;;;;;;80.57;49.90;;;;;;;;;;4918083;28;20930;-74
2022/10/15 01:10:45;;;;;;;77.20;46.55;;;;;;;;;;4943619;28;20463;-74
2022/10/15 01:13:19;;;;;;;63.97;36.38;;;;;;;;;;4947903;28;20645;-78
2022/10/15 01:15:54;;;;;;;76.97;43.72;;;;;;;;;;4934663;28;20660;-77
2022/10/15 01:18:19;;;;;;;;;;;;;;;;;;4945735;28;20936;-76
2022/10/15 01:21:08;;;;;;;69.57;40.85;;;;;;;;;;4938766;28;20257;-77
2022/10/15 01:23:55;;;;;;;73.60;40.97;;;;;;;;;;4923138;28;20125;-78
2022/10/15 01:26:50;;;;;;;77.30;41.38;;;;;;;;;;4925014;28;20037;-77
2022/10/15 01:29:52;;;;;;;77.13;39.75;;;;;;;;;;4924236;28;20610;-78
2022/10/15 01:32:23;;;;;;;78.10;46.42;;;;;;;;;;4946296;28;20033;-77
2022/10/15 01:35:05;;;;;;;76.22;42.65;;;;;;;;;;4944828;28;20119;-78
2022/10/15 01:37:40;;;;;;;77.53;44.03;;;;;;;;;;4955612;28;20450;-78
2022/10/15 01:40:35;;;;;;;76.93;41.28;;;;;;;;;;4921123;28;20030;-78
2022/10/15 01:43:06;;;;;;;47.95;26.25;;;;;;;;;;4828661;29;20091;-78
2022/10/15 01:45:47;;;;;;;35.47;16.55;;;;;;;;;;4883163;28;20038;-78
2022/10/15 01:48:16;;;;;;;14.55;4.55;;;;;;;;;;4938577;28;20136;-79
2022/10/15 01:50:52;;;;;;;29.52;3.63;;;;;;;;;;4954316;28;20372;-78
2022/10/15 01:53:25;;;;;;;18.02;2.63;;;;;;;;;;4910575;28;20109;-78
2022/10/15 01:56:11;;;;;;;20.33;2.30;;;;;;;;;;4952850;28;20872;-78
2022/10/15 01:58:41;;;;;;;17.77;1.83;;;;;;;;;;4894101;28;20050;-77
2022/10/15 02:01:14;;;;;;;12.43;1.88;;;;;;;;;;4941889;28;20065;-77
2022/10/15 02:03:47;;;;;;;13.70;2.33;;;;;;;;;;4945785;28;20450;-76
2022/10/15 02:06:19;;;;;;;5.63;1.88;;;;;;;;;;4931232;28;20045;-76
2022/10/15 02:08:57;;;;;;;4.32;1.50;;;;;;;;;;4888581;28;20100;-77
2022/10/15 02:11:23;;;;;;;3.90;1.27;;;;;;;;;;4925674;28;20041;-77
2022/10/15 02:13:59;;;;;;;7.75;1.90;;;;;;;;;;4954236;28;20067;-77
2022/10/15 02:16:41;;;;;;;10.48;2.55;;;;;;;;;;4903689;28;20038;-76
2022/10/15 02:19:15;;;;;;;12.82;3.15;;;;;;;;;;4913636;28;20217;-75
2022/10/15 02:21:46;;;;;;;11.13;3.10;;;;;;;;;;4929180;28;20049;-76
2022/10/15 02:24:19;;;;;;;14.15;2.95;;;;;;;;;;4944349;28;20029;-76
2022/10/15 02:26:45;;;;;;;12.63;3.40;;;;;;;;;;4942428;28;20060;-76
2022/10/15 02:29:18;;;;;;;11.52;4.03;;;;;;;;;;4953393;28;20055;-76
2022/10/15 02:34:56;;;;;;;13.85;5.45;;;;;;;;;;4870527;28;20157;-76
2022/10/15 02:37:32;;;;;;;22.27;8.15;;;;;;;;;;4901882;28;20038;-76
2022/10/15 02:40:03;;;;;;;19.67;8.63;;;;;;;;;;4927607;28;20084;-76
2022/10/15 02:42:32;;;;;;;23.15;10.70;;;;;;;;;;4922178;28;20088;-76
2022/10/15 02:45:09;;;;;;;55.92;28.05;;;;;;;;;;4905892;28;21725;-75
2022/10/15 02:47:37;;;;;;;88.03;41.55;;;;;;;;;;4934558;28;20065;-76
2022/10/15 02:50:08;;;;;;;78.80;41.25;;;;;;;;;;4941979;28;20118;-76
2022/10/15 02:52:42;;;;;;;80.93;42.05;;;;;;;;;;4958479;28;20109;-75
2022/10/15 02:55:08;;;;;;;77.70;42.28;;;;;;;;;;4944326;28;20582;-75
2022/10/15 02:57:34;;;;;;;77.28;39.75;;;;;;;;;;4941412;28;20037;-76
2022/10/15 02:59:59;;;;;;;60.53;34.25;;;;;;;;;;4954552;28;20045;-76
2022/10/15 03:02:25;;;;;;;59.47;35.38;;;;;;;;;;4954614;28;20044;-76
2022/10/15 03:04:56;;;;;;;72.68;38.65;;;;;;;;;;4943340;28;20072;-76
2022/10/15 03:07:24;;;;;;;66.35;38.70;;;;;;;;;;4936465;28;20566;-76
2022/10/15 03:10:04;;;;;;;67.75;40.08;;;;;;;;;;4934814;28;21117;-75
2022/10/15 03:12:33;;;;;;;76.15;41.92;;;;;;;;;;4923745;28;20078;-76
2022/10/15 03:14:59;;;;;;;76.13;43.50;;;;;;;;;;4950003;28;20602;-76
2022/10/15 03:17:25;;;;;;;67.25;44.42;;;;;;;;;;4948390;28;20043;-77
2022/10/15 03:19:52;;;;;;;67.85;41.58;;;;;;;;;;4929098;28;20041;-76
2022/10/15 03:22:18;;;;;;;78.60;39.58;;;;;;;;;;4964228;28;20247;-76
2022/10/15 03:24:45;;;;;;;70.05;38.05;;;;;;;;;;4932809;28;21398;-77
2022/10/15 03:27:16;;;;;;;73.63;42.67;;;;;;;;;;4949490;28;20030;-76
2022/10/15 03:29:48;;;;;;;64.57;37.95;;;;;;;;;;4938513;28;20037;-76
2022/10/15 03:32:17;;;;;;;66.57;39.75;;;;;;;;;;4939711;28;20031;-76
2022/10/15 03:34:59;;;;;;;69.57;44.20;;;;;;;;;;4924993;28;20164;-77
2022/10/15 03:37:31;;;;;;;80.63;48.53;;;;;;;;;;4912473;28;20037;-77
2022/10/15 03:40:00;;;;;;;69.95;44.05;;;;;;;;;;4947406;28;20030;-76
2022/10/15 03:42:28;;;;;;;69.28;42.42;;;;;;;;;;4946147;28;20408;-76
2022/10/15 03:44:53;;;;;;;70.85;43.72;;;;;;;;;;4950809;28;20794;-76
2022/10/15 03:47:22;;;;;;;73.72;48.53;;;;;;;;;;4959896;28;20956;-77
2022/10/15 03:49:50;;;;;;;74.15;45.60;;;;;;;;;;4944892;28;20612;-76
2022/10/15 03:52:16;;;;;;;75.47;40.67;;;;;;;;;;4933886;28;20612;-76
2022/10/15 03:54:42;;;;;;;75.50;39.35;;;;;;;;;;4952273;28;20042;-76
2022/10/15 03:57:12;;;;;;;70.63;39.40;;;;;;;;;;4933244;28;20112;-77
2022/10/15 03:59:40;;;;;;;72.38;40.45;;;;;;;;;;4951562;28;20079;-76
2022/10/15 04:02:09;;;;;;;72.20;43.67;;;;;;;;;;4954019;28;20507;-77
2022/10/15 04:04:35;;;;;;;71.22;47.08;;;;;;;;;;4951051;28;20044;-77
2022/10/15 04:07:06;;;;;;;80.13;45.63;;;;;;;;;;4941967;28;20038;-77
2022/10/15 04:09:41;;;;;;;74.22;43.17;;;;;;;;;;4955178;28;20037;-76
2022/10/15 04:12:16;;;;;;;71.57;42.92;;;;;;;;;;4951306;28;20263;-77
2022/10/15 04:14:42;;;;;;;74.43;43.33;;;;;;;;;;4941007;28;20036;-77
2022/10/15 04:17:10;;;;;;;76.10;45.58;;;;;;;;;;4965166;28;20366;-77
2022/10/15 04:19:36;;;;;;;73.35;43.28;;;;;;;;;;4951826;28;20057;-77
2022/10/15 04:22:01;;;;;;;73.57;40.67;;;;;;;;;;4950151;28;20514;-76
2022/10/15 04:24:29;;;;;;;68.10;37.05;;;;;;;;;;4951498;28;20052;-77
2022/10/15 04:26:57;;;;;;;76.32;42.05;;;;;;;;;;4955636;28;20568;-77
2022/10/15 04:29:32;;;;;;;75.88;44.20;;;;;;;;;;4934862;28;20747;-76
2022/10/15 04:32:03;;;;;;;69.68;41.13;;;;;;;;;;4941155;28;20662;-76
2022/10/15 04:34:29;;;;;;;67.53;39.25;;;;;;;;;;4946834;28;20066;-76
2022/10/15 04:36:54;;;;;;;69.60;39.30;;;;;;;;;;4939501;28;20041;-77
2022/10/15 04:39:20;;;;;;;73.75;43.20;;;;;;;;;;4960045;28;20037;-77
2022/10/15 04:41:46;;;;;;;81.25;47.22;;;;;;;;;;4942193;28;20388;-76
2022/10/15 04:44:11;;;;;;;75.78;44.88;;;;;;;;;;4953594;28;20061;-77
2022/10/15 04:46:37;;;;;;;75.55;45.28;;;;;;;;;;4949609;28;20064;-77
2022/10/15 04:49:02;;;;;;;72.95;40.55;;;;;;;;;;4951611;28;20589;-77
2022/10/15 04:51:28;;;;;;;70.72;39.67;;;;;;;;;;4951388;28;20593;-77
2022/10/15 04:53:56;;;;;;;54.72;32.72;;;;;;;;;;4949616;28;20041;-78
2022/10/15 04:56:22;;;;;;;58.75;32.90;;;;;;;;;;4943905;28;20285;-76
2022/10/15 04:58:48;;;;;;;50.70;28.88;;;;;;;;;;4932455;28;20049;-76
2022/10/15 05:01:16;;;;;;;54.97;28.73;;;;;;;;;;4952337;28;20752;-77
2022/10/15 05:03:45;;;;;;;41.33;22.70;;;;;;;;;;4945943;28;20070;-76
2022/10/15 05:06:15;;;;;;;43.33;22.70;;;;;;;;;;4943270;28;20434;-76
2022/10/15 05:08:40;;;;;;;36.85;20.08;;;;;;;;;;4961005;28;20746;-77
2022/10/15 05:11:07;;;;;;;31.83;19.95;;;;;;;;;;4947046;28;20590;-76
2022/10/15 05:13:38;;;;;;;35.15;19.23;;;;;;;;;;4958585;28;20498;-76
2022/10/15 05:16:11;;;;;;;34.92;21.17;;;;;;;;;;4949976;28;20049;-77
2022/10/15 05:18:38;;;;;;;37.78;21.75;;;;;;;;;;4948368;28;20038;-77
2022/10/15 05:21:07;;;;;;;39.72;23.60;;;;;;;;;;4944997;28;20049;-76
2022/10/15 05:23:33;;;;;;;66.22;34.00;;;;;;;;;;4951164;28;20093;-77
2022/10/15 05:26:00;;;;;;;50.50;31.20;;;;;;;;;;4946676;28;20033;-77
2022/10/15 05:28:29;;;;;;;58.53;32.42;;;;;;;;;;4948252;28;20037;-74
2022/10/15 05:30:56;;;;;;;80.20;44.85;;;;;;;;;;4941156;28;20056;-74
2022/10/15 05:33:28;;;;;;;88.05;47.13;;;;;;;;;;4946894;28;20034;-72
2022/10/15 05:35:57;;;;;;;89.10;46.30;;;;;;;;;;4951125;28;20122;-74
2022/10/15 05:38:22;;;;;;;85.35;46.25;;;;;;;;;;4947600;28;20037;-74
2022/10/15 05:40:52;;;;;;;87.95;47.75;;;;;;;;;;4940342;28;20670;-74
2022/10/15 05:43:21;;;;;;;84.03;47.47;;;;;;;;;;4954533;28;20080;-74
2022/10/15 05:45:54;;;;;;;84.70;46.55;;;;;;;;;;4884286;28;20080;-73
2022/10/15 05:48:39;;;;;;;88.43;48.65;;;;;;;;;;4940337;28;20045;-74
2022/10/15 05:51:10;;;;;;;96.25;52.63;;;;;;;;;;4928071;28;20141;-74
2022/10/15 05:53:36;;;;;;;85.82;46.78;;;;;;;;;;4939344;28;20033;-74
2022/10/15 05:56:02;;;;;;;86.93;46.13;;;;;;;;;;4957659;28;20049;-74
2022/10/15 05:58:28;;;;;;;90.93;48.03;;;;;;;;;;4942503;28;20128;-74
2022/10/15 06:00:58;;;;;;;91.82;48.65;;;;;;;;;;4947626;28;20675;-74
2022/10/15 06:03:24;;;;;;;94.45;50.75;;;;;;;;;;4941871;28;20271;-74
2022/10/15 06:05:53;;;;;;;98.70;51.15;;;;;;;;;;4949354;28;20307;-74
2022/10/15 06:08:26;;;;;;;106.63;52.88;;;;;;;;;;4944501;28;20084;-74
2022/10/15 06:10:54;;;;;;;96.07;52.40;;;;;;;;;;4958150;28;20629;-75
2022/10/15 06:13:20;;;;;;;108.85;54.72;;;;;;;;;;4941465;28;20052;-74
2022/10/15 06:15:46;;;;;;;97.90;54.28;;;;;;;;;;4944916;28;20112;-74
2022/10/15 06:18:14;;;;;;;96.80;53.33;;;;;;;;;;4941459;28;20573;-74
2022/10/15 06:20:43;;;;;;;93.00;51.22;;;;;;;;;;4932020;28;20553;-74
2022/10/15 06:23:17;;;;;;;117.80;60.17;;;;;;;;;;4946903;28;20357;-74
2022/10/15 06:25:46;;;;;;;114.25;63.90;;;;;;;;;;4952918;28;21104;-74
2022/10/15 06:28:12;;;;;;;115.95;60.85;;;;;;;;;;4956479;28;21003;-74
2022/10/15 06:30:38;;;;;;;110.65;57.35;;;;;;;;;;4936036;28;20038;-74
2022/10/15 06:33:03;;;;;;;119.00;61.50;;;;;;;;;;4938865;28;20200;-73
2022/10/15 06:35:39;;;;;;;119.18;64.82;;;;;;;;;;4944542;28;20065;-75
2022/10/15 06:38:04;;;;;;;123.15;69.88;;;;;;;;;;4914507;28;20042;-74
2022/10/15 06:40:30;;;;;;;114.35;63.55;;;;;;;;;;4954307;28;20041;-75
2022/10/15 06:43:03;;;;;;;112.00;61.50;;;;;;;;;;4921601;28;20034;-74
2022/10/15 06:45:35;;;;;;;115.60;61.08;;;;;;;;;;4952427;28;20045;-74
2022/10/15 06:48:01;;;;;;;116.85;61.55;;;;;;;;;;4945425;28;20457;-74
2022/10/15 06:50:26;;;;;;;111.47;60.33;;;;;;;;;;4948717;28;20038;-74
2022/10/15 06:52:52;;;;;;;116.28;65.00;;;;;;;;;;4951136;28;20077;-74
2022/10/15 06:55:23;;;;;;;124.45;68.43;;;;;;;;;;4956141;28;20572;-75
2022/10/15 06:57:56;;;;;;;132.80;73.22;;;;;;;;;;4952052;28;21881;-73
2022/10/15 07:00:22;;;;;;;132.25;75.15;;;;;;;;;;4942638;28;20037;-74
2022/10/15 07:02:54;;;;;;;139.68;74.20;;;;;;;;;;4916226;28;20049;-75
2022/10/15 07:05:19;;;;;;;141.90;76.15;;;;;;;;;;4937960;28;20163;-75
2022/10/15 07:07:55;;;;;;;125.05;69.35;;;;;;;;;;4954886;28;20053;-74
2022/10/15 07:10:21;;;;;;;130.63;69.63;;;;;;;;;;4954720;28;20321;-74
2022/10/15 07:12:47;;;;;;;141.30;73.40;;;;;;;;;;4953199;28;20545;-74
2022/10/15 07:15:16;;;;;;;125.13;68.75;;;;;;;;;;4952502;28;21846;-75
2022/10/15 07:17:49;;;;;;;142.25;80.47;;;;;;;;;;4948009;28;20037;-74
2022/10/15 07:20:15;;;;;;;127.22;70.40;;;;;;;;;;4947183;28;20027;-75
2022/10/15 07:22:42;;;;;;;122.25;65.60;;;;;;;;;;4950412;28;21090;-75
2022/10/15 07:25:09;;;;;;;129.75;72.18;;;;;;;;;;4948661;28;20152;-75
2022/10/15 07:27:35;;;;;;;131.60;68.47;;;;;;;;;;4951982;28;20065;-75
2022/10/15 07:30:01;;;;;;;127.80;67.85;;;;;;;;;;4962378;28;20046;-75
2022/10/15 07:32:26;;;;;;;118.85;59.45;;;;;;;;;;4949463;28;20065;-75
2022/10/15 07:34:51;;;;;;;124.80;64.60;;;;;;;;;;4950130;28;20243;-75
2022/10/15 07:37:17;;;;;;;129.95;66.35;;;;;;;;;;4948894;28;20450;-75
2022/10/15 07:39:45;;;;;;;118.50;66.25;;;;;;;;;;4947074;28;20041;-76
2022/10/15 07:42:16;;;;;;;115.25;62.25;;;;;;;;;;4938288;28;20149;-77
2022/10/15 07:44:42;;;;;;;120.50;62.08;;;;;;;;;;4948092;28;20030;-76
2022/10/15 07:47:10;;;;;;;120.78;65.57;;;;;;;;;;4953908;28;20262;-75
2022/10/15 07:49:36;;;;;;;116.70;60.78;;;;;;;;;;4952392;28;20046;-75
2022/10/15 07:52:03;;;;;;;105.90;58.45;;;;;;;;;;4933304;28;20459;-75
2022/10/15 07:54:34;;;;;;;117.00;64.28;;;;;;;;;;4954253;28;20398;-75
2022/10/15 07:57:02;;;;;;;122.72;69.82;;;;;;;;;;4949593;28;20084;-75
2022/10/15 07:59:27;;;;;;;97.18;54.92;;;;;;;;;;4964157;28;20450;-75
2022/10/15 08:01:53;;;;;;;110.32;60.75;;;;;;;;;;4952313;28;20759;-75
2022/10/15 08:04:19;;;;;;;83.03;49.63;;;;;;;;;;4934897;28;22071;-75
2022/10/15 08:06:45;;;;;;;101.60;57.38;;;;;;;;;;4954320;28;20077;-76
2022/10/15 08:09:13;;;;;;;85.13;50.28;;;;;;;;;;4952949;28;20897;-76
2022/10/15 08:11:39;;;;;;;96.75;52.38;;;;;;;;;;4948551;28;20183;-75
2022/10/15 08:14:10;;;;;;;98.60;56.90;;;;;;;;;;4950433;28;20080;-76
2022/10/15 08:16:40;;;;;;;102.95;55.72;;;;;;;;;;4935127;28;20975;-75
2022/10/15 08:19:06;;;;;;;93.15;53.17;;;;;;;;;;4929283;28;20035;-76
2022/10/15 08:21:34;;;;;;;98.25;54.30;;;;;;;;;;4927029;28;22821;-76
2022/10/15 08:24:00;;;;;;;108.97;57.35;;;;;;;;;;4957214;28;20076;-75
2022/10/15 08:26:25;;;;;;;104.93;56.40;;;;;;;;;;4951599;28;20034;-74
2022/10/15 08:28:54;;;;;;;102.40;55.28;;;;;;;;;;4956615;28;20128;-75
2022/10/15 08:31:19;;;;;;;105.65;55.05;;;;;;;;;;4948931;28;20050;-75
2022/10/15 08:33:48;;;;;;;106.00;55.08;;;;;;;;;;4942632;28;20052;-74
2022/10/15 08:36:15;;;;;;;103.15;49.97;;;;;;;;;;4948857;28;20034;-73
2022/10/15 08:38:41;;;;;;;93.20;47.80;;;;;;;;;;4958933;28;20080;-74
2022/10/15 08:41:19;;;;;;;101.30;49.28;;;;;;;;;;4947154;28;20563;-75
2022/10/15 08:43:48;;;;;;;81.38;43.83;;;;;;;;;;4953773;28;20030;-74
2022/10/15 08:46:22;;;;;;;74.15;40.97;;;;;;;;;;4953155;28;20038;-75
2022/10/15 08:48:50;;;;;;;81.63;42.25;;;;;;;;;;4934917;28;20076;-75
2022/10/15 08:51:17;;;;;;;85.57;45.20;;;;;;;;;;4949256;28;20038;-75
2022/10/15 08:53:47;;;;;;;92.75;46.50;;;;;;;;;;4945013;28;20116;-76
2022/10/15 08:56:16;;;;;;;86.45;44.47;;;;;;;;;;4948790;28;20526;-76
2022/10/15 08:58:52;;;;;;;81.55;43.05;;;;;;;;;;4939727;28;20557;-76
2022/10/15 09:01:33;;;;;;;69.05;38.78;;;;;;;;;;4915879;28;20909;-75
2022/10/15 09:04:20;;;;;;;76.88;41.20;;;;;;;;;;4951624;28;20954;-74
2022/10/15 09:06:49;;;;;;;63.00;35.70;;;;;;;;;;4911151;28;20041;-74
2022/10/15 09:09:35;;;;;;;70.07;37.63;;;;;;;;;;4937170;28;20256;-74
2022/10/15 09:12:27;;;;;;;51.22;31.60;;;;;;;;;;4950340;28;20229;-75
2022/10/15 09:14:54;;;;;;;49.20;29.55;;;;;;;;;;4944767;28;20037;-75
2022/10/15 09:17:24;;;;;;;48.88;29.38;;;;;;;;;;4941137;28;20042;-75
2022/10/15 09:19:55;;;;;;;56.60;31.47;;;;;;;;;;4944026;28;20118;-75
2022/10/15 09:22:27;;;;;;;47.70;30.02;;;;;;;;;;4940876;28;20031;-76
2022/10/15 09:24:55;;;;;;;47.40;28.25;;;;;;;;;;4956096;28;20057;-76
2022/10/15 09:27:31;;;;;;;45.90;28.35;;;;;;;;;;4927844;28;20042;-75
2022/10/15 09:30:03;;;;;;;47.22;27.25;;;;;;;;;;4949207;28;20334;-75
2022/10/15 09:32:31;;;;;;;56.55;30.35;;;;;;;;;;4948652;28;20044;-76
2022/10/15 09:35:02;;;;;;;60.38;33.65;;;;;;;;;;4935577;28;20056;-75
2022/10/15 09:37:42;;;;;;;69.03;35.72;;;;;;;;;;4946615;28;20544;-75
2022/10/15 09:40:14;;;;;;;67.78;35.38;;;;;;;;;;4928288;28;20030;-75
2022/10/15 09:42:48;;;;;;;65.78;34.00;;;;;;;;;;4932923;28;20270;-74
2022/10/15 09:45:17;;;;;;;62.88;32.38;;;;;;;;;;4938101;28;20455;-74
2022/10/15 09:47:49;;;;;;;65.50;32.20;;;;;;;;;;4929047;28;20681;-74
2022/10/15 09:50:15;;;;;;;52.00;29.00;;;;;;;;;;4909491;28;20038;-74
2022/10/15 09:52:50;;;;;;;55.63;31.13;;;;;;;;;;4945610;28;20461;-75
2022/10/15 09:55:38;;;;;;;56.78;31.42;;;;;;;;;;4944064;28;20065;-75
2022/10/15 09:58:12;;;;;;;58.13;31.10;;;;;;;;;;4951526;28;20373;-75
2022/10/15 10:00:51;;;;;;;61.58;34.13;;;;;;;;;;4948383;28;20076;-75
2022/10/15 10:03:18;;;;;;;69.47;37.05;;;;;;;;;;4940073;28;20034;-73
2022/10/15 10:05:51;;;;;;;62.22;34.17;;;;;;;;;;4940966;28;20457;-75
2022/10/15 10:08:27;;;;;;;67.15;37.67;;;;;;;;;;4931531;28;20206;-75
2022/10/15 10:10:59;;;;;;;65.85;34.38;;;;;;;;;;4950752;28;20873;-74
2022/10/15 10:13:41;;;;;;;66.57;36.03;;;;;;;;;;4921177;28;20579;-75
2022/10/15 10:16:10;;;;;;;61.97;34.75;;;;;;;;;;4941806;28;20389;-75
2022/10/15 10:18:38;;;;;;;56.50;34.33;;;;;;;;;;4937987;28;20455;-74
2022/10/15 10:21:05;;;;;;;47.85;31.60;;;;;;;;;;4964297;28;20373;-75
2022/10/15 10:23:40;;;;;;;54.03;33.55;;;;;;;;;;4937356;28;20129;-75
2022/10/15 10:26:11;;;;;;;42.30;28.60;;;;;;;;;;4922061;28;20782;-75
2022/10/15 10:28:45;;;;;;;44.50;31.00;;;;;;;;;;4917770;28;20288;-73
2022/10/15 10:31:14;;;;;;;45.75;32.65;;;;;;;;;;4933432;28;20248;-74
2022/10/15 10:33:58;;;;;;;58.03;36.05;;;;;;;;;;4937623;28;20029;-73
2022/10/15 10:36:32;;;;;;;54.47;33.85;;;;;;;;;;4930515;28;20041;-73
2022/10/15 10:39:20;;;;;;;51.05;33.33;;;;;;;;;;4946945;28;20089;-73
2022/10/15 10:41:55;;;;;;;49.88;31.00;;;;;;;;;;4907212;28;20068;-73
2022/10/15 10:44:28;;;;;;;47.85;31.20;;;;;;;;;;4919778;28;20034;-72
2022/10/15 10:47:05;;;;;;;39.33;28.40;;;;;;;;;;4929442;28;20367;-72
2022/10/15 10:49:33;;;;;;;49.92;31.08;;;;;;;;;;4941969;28;20581;-72
2022/10/15 10:52:01;;;;;;;40.42;27.58;;;;;;;;;;4929831;28;20529;-72
2022/10/15 10:54:29;;;;;;;38.85;26.48;;;;;;;;;;4937745;28;20116;-73
2022/10/15 10:56:55;;;;;;;37.55;25.40;;;;;;;;;;4939394;28;20141;-73
2022/10/15 10:59:28;;;;;;;42.95;26.85;;;;;;;;;;4935969;28;20040;-73
2022/10/15 11:01:57;;;;;;;35.88;24.40;;;;;;;;;;4952651;28;20040;-72
2022/10/15 11:04:30;;;;;;;37.65;25.35;;;;;;;;;;4939182;28;20484;-73
2022/10/15 11:07:08;;;;;;;48.08;25.52;;;;;;;;;;4951248;28;20450;-72
2022/10/15 11:10:02;;;;;;;31.35;20.77;;;;;;;;;;4933169;28;20497;-72
2022/10/15 11:12:41;;;;;;;32.78;20.65;;;;;;;;;;4945899;28;20033;-73
2022/10/15 11:15:25;;;;;;;29.77;21.83;;;;;;;;;;4944219;28;20458;-72
2022/10/15 11:17:58;;;;;;;31.30;22.20;;;;;;;;;;4945309;28;20695;-72
2022/10/15 11:20:55;;;;;;;42.15;24.52;;;;;;;;;;4931945;28;20677;-73
2022/10/15 11:23:47;;;;;;;30.83;20.70;;;;;;;;;;4931521;28;20081;-73
2022/10/15 11:26:22;;;;;;;27.10;20.33;;;;;;;;;;4951408;28;20072;-72
2022/10/15 11:29:00;;;;;;;26.30;20.08;;;;;;;;;;4934432;28;20064;-72
2022/10/15 11:31:36;;;;;;;16.90;14.45;;;;;;;;;;4907808;28;20580;-72
2022/10/15 11:34:31;;;;;;;17.85;15.23;;;;;;;;;;4947021;28;20040;-72
2022/10/15 11:37:06;;;;;;;17.33;15.17;;;;;;;;;;4904428;28;20042;-73
2022/10/15 11:39:40;;;;;;;19.27;15.98;;;;;;;;;;4942003;28;20042;-73
2022/10/15 11:42:14;;;;;;;17.10;13.90;;;;;;;;;;4944863;28;20072;-73
2022/10/15 11:44:52;;;;;;;17.67;15.77;;;;;;;;;;4955417;28;20375;-73
2022/10/15 11:47:36;;;;;;;18.38;14.25;;;;;;;;;;4933331;28;20200;-73
2022/10/15 11:50:10;;;;;;;17.75;14.23;;;;;;;;;;4931680;28;20287;-73
2022/10/15 11:52:42;;;;;;;18.83;16.83;;;;;;;;;;4945140;28;20044;-72
2022/10/15 11:55:07;;;;;;;;;;;;;;;;;;4946987;28;20609;-72
2022/10/15 11:57:39;;;;;;;14.57;10.45;;;;;;;;;;4940355;28;19987;-72
2022/10/15 12:00:29;;;;;;;10.27;7.97;;;;;;;;;;4873722;28;20121;-72
2022/10/15 12:03:10;;;;;;;;;;;;;;;;;;;;;
2022/10/15 12:06:02;;;;;;;12.65;10.32;;;;;;;;;;4893655;28;20046;-72
2022/10/15 12:08:47;;;;;;;16.00;14.30;;;;;;;;;;4885014;28;20046;-72
2022/10/15 12:11:27;;;;;;;13.73;11.90;;;;;;;;;;4919756;28;20108;-73
2022/10/15 12:14:05;;;;;;;15.48;8.05;;;;;;;;;;4877097;28;20650;-73
2022/10/15 12:16:42;;;;;;;10.13;8.98;;;;;;;;;;4910125;28;20285;-73
2022/10/15 12:19:14;;;;;;;9.38;8.27;;;;;;;;;;4931396;28;20280;-73
2022/10/15 12:21:45;;;;;;;15.10;10.95;;;;;;;;;;4947498;28;20045;-73
2022/10/15 12:24:11;;;;;;;;;;;;;;;;;;4946302;28;20613;-73
2022/10/15 12:26:37;;;;;;;13.20;8.82;;;;;;;;;;4950793;28;19913;-74
2022/10/15 12:29:18;;;;;;;15.63;10.63;;;;;;;;;;4928869;28;20613;-75
2022/10/15 12:31:49;;;;;;;8.90;6.82;;;;;;;;;;4943371;28;20033;-74
2022/10/15 12:34:26;;;;;;;6.18;5.38;;;;;;;;;;4935576;28;20514;-73
2022/10/15 12:37:17;;;;;;;9.02;6.63;;;;;;;;;;4932317;28;20239;-73
2022/10/15 12:39:49;;;;;;;11.18;9.88;;;;;;;;;;4939539;28;20520;-73
2022/10/15 12:42:22;;;;;;;11.88;10.00;;;;;;;;;;4925783;28;20069;-72
2022/10/15 12:44:53;;;;;;;7.97;5.68;;;;;;;;;;4890891;28;20373;-71
2022/10/15 12:47:55;;;;;;;6.32;4.80;;;;;;;;;;4906326;28;20139;-72
2022/10/15 12:50:29;;;;;;;7.28;4.63;;;;;;;;;;4839009;29;20047;-72
2022/10/15 12:53:02;;;;;;;9.02;4.22;;;;;;;;;;4914560;28;20108;-69
2022/10/15 12:55:37;;;;;;;7.10;4.55;;;;;;;;;;4913917;28;20828;-72
2022/10/15 12:58:27;;;;;;;7.60;4.60;;;;;;;;;;4934985;28;20467;-73
2022/10/15 13:01:06;;;;;;;7.70;4.78;;;;;;;;;;4951223;28;20194;-71
2022/10/15 13:03:46;;;;;;;10.90;4.88;;;;;;;;;;4923839;28;20330;-71
2022/10/15 13:06:20;;;;;;;8.35;4.72;;;;;;;;;;4931669;28;20486;-72
2022/10/15 13:09:05;;;;;;;8.63;3.65;;;;;;;;;;4903010;28;20186;-71
2022/10/15 13:11:36;;;;;;;8.02;4.00;;;;;;;;;;4932230;28;20560;-71
2022/10/15 13:14:19;;;;;;;7.93;4.03;;;;;;;;;;4887967;28;20039;-72
2022/10/15 13:17:01;;;;;;;9.35;3.97;;;;;;;;;;4882422;28;20040;-73
2022/10/15 13:19:35;;;;;;;10.52;3.60;;;;;;;;;;4922644;28;20837;-73
2022/10/15 13:22:02;;;;;;;7.35;3.45;;;;;;;;;;4951163;28;20037;-74
2022/10/15 13:24:30;;;;;;;12.07;3.15;;;;;;;;;;4953183;28;20180;-74
2022/10/15 13:26:56;;;;;;;8.50;2.53;;;;;;;;;;4944428;28;20045;-72
2022/10/15 13:29:25;;;;;;;6.78;2.35;;;;;;;;;;4957258;28;20536;-74
2022/10/15 13:31:52;;;;;;;8.70;2.10;;;;;;;;;;4941863;28;20030;-73
2022/10/15 13:34:32;;;;;;;8.30;2.30;;;;;;;;;;4919294;28;20270;-73
2022/10/15 13:37:00;;;;;;;7.95;1.80;;;;;;;;;;4946238;28;20057;-74
2022/10/15 13:39:36;;;;;;;14.40;2.13;;;;;;;;;;4930081;28;20726;-74
2022/10/15 13:42:12;;;;;;;17.55;2.10;;;;;;;;;;4949992;28;20386;-73
2022/10/15 13:44:38;;;;;;;12.75;2.00;;;;;;;;;;4953538;28;20246;-72
2022/10/15 13:47:42;;;;;;;15.55;1.98;;;;;;;;;;4955453;28;20165;-72
2022/10/15 13:50:10;;;;;;;19.40;2.47;;;;;;;;;;4872923;29;20495;-73
2022/10/15 13:52:40;;;;;;;8.52;1.70;;;;;;;;;;4876374;29;20180;-72
2022/10/15 13:55:14;;;;;;;11.93;2.03;;;;;;;;;;4902460;28;21882;-74
2022/10/15 13:57:42;;;;;;;12.07;1.70;;;;;;;;;;4941272;28;20050;-73
2022/10/15 14:00:24;;;;;;;13.45;1.80;;;;;;;;;;4941590;28;20286;-73
2022/10/15 14:03:13;;;;;;;9.45;1.50;;;;;;;;;;4943341;28;20104;-73
2022/10/15 14:05:39;;;;;;;11.85;1.33;;;;;;;;;;4911964;28;20289;-75
2022/10/15 14:08:07;;;;;;;10.55;1.70;;;;;;;;;;4912677;28;20669;-74
2022/10/15 14:10:33;;;;;;;10.05;1.45;;;;;;;;;;4908640;28;20042;-74
2022/10/15 14:13:00;;;;;;;8.82;1.77;;;;;;;;;;4923696;28;20575;-75
2022/10/15 14:15:58;;;;;;;10.38;2.15;;;;;;;;;;4917031;28;20136;-73
2022/10/15 14:18:35;;;;;;;16.23;2.22;;;;;;;;;;4873911;28;20034;-74
2022/10/15 14:21:01;;;;;;;8.98;1.90;;;;;;;;;;4912027;28;20118;-73
2022/10/15 14:23:29;;;;;;;11.90;1.83;;;;;;;;;;4911856;28;20495;-74
2022/10/15 14:25:56;;;;;;;13.23;1.77;;;;;;;;;;4911846;28;20031;-74
2022/10/15 14:28:22;;;;;;;17.73;2.20;;;;;;;;;;4911638;28;21773;-76
2022/10/15 14:30:48;;;;;;;12.77;2.13;;;;;;;;;;4914170;28;20042;-74
2022/10/15 14:33:32;;;;;;;10.63;1.67;;;;;;;;;;4912449;28;20146;-74
2022/10/15 14:36:23;;;;;;;10.70;1.80;;;;;;;;;;4911830;28;20039;-74
2022/10/15 14:38:50;;;;;;;10.32;1.85;;;;;;;;;;4901775;28;20374;-72
2022/10/15 14:41:24;;;;;;;13.07;2.05;;;;;;;;;;4912842;28;21120;-72
2022/10/15 14:44:02;;;;;;;9.38;1.60;;;;;;;;;;4913411;28;20275;-74
2022/10/15 14:46:38;;;;;;;12.55;1.63;;;;;;;;;;4911253;28;20043;-74
2022/10/15 14:49:13;;;;;;;13.38;2.20;;;;;;;;;;4915130;28;20043;-73
2022/10/15 14:51:39;;;;;;;12.65;1.50;;;;;;;;;;4902792;28;20889;-73
2022/10/15 14:54:10;;;;;;;13.35;1.88;;;;;;;;;;4927866;28;20070;-73